Time;durP1;ratioP1;P1;durP2;ratioP2;P2;SDS_P1;SDS_P2;PMS_P1;PMS_P2;Temp;Humidity;BMP_temperature;BMP_pressure;BME280_temperature;BME280_humidity;BME280_pressure;Samples;Min_cycle;Max_cycle;Signal;HPM_P1;HPM_P2
2023/12/22 00:01:05;;;;;;;1.10;1.00;;;;;;;14.68;54.74;94920.19;105130;1258;62042;-43
2023/12/22 00:03:33;;;;;;;1.30;1.00;;;;;;;14.68;54.70;94919.41;105136;1257;75510;-45
2023/12/22 00:06:01;;;;;;;1.40;1.10;;;;;;;14.68;54.70;94918.64;105312;1261;65754;-45
2023/12/22 00:08:28;;;;;;;1.40;1.10;;;;;;;14.68;54.78;94915.41;105081;1257;72569;-45
2023/12/22 00:10:56;;;;;;;1.10;0.90;;;;;;;14.68;54.73;94922.87;105079;1257;62054;-45
2023/12/22 00:13:23;;;;;;;1.50;1.30;;;;;;;14.69;54.76;94919.57;105226;1258;62061;-44
2023/12/22 00:15:51;;;;;;;1.50;1.20;;;;;;;14.68;54.69;94918.34;105223;1260;75272;-44
2023/12/22 00:18:18;;;;;;;1.50;1.10;;;;;;;14.68;54.67;94917.17;105539;1261;65867;-44
2023/12/22 00:20:45;;;;;;;1.40;1.10;;;;;;;14.68;54.73;94915.48;105680;1257;72721;-44
2023/12/22 00:23:13;;;;;;;1.70;1.10;;;;;;;14.69;54.75;94916.88;105603;1260;62049;-44
2023/12/22 00:25:40;;;;;;;1.90;1.20;;;;;;;14.68;54.75;94913.86;105250;1259;62268;-43
2023/12/22 00:28:07;;;;;;;1.00;0.90;;;;;;;14.68;54.77;94919.25;105110;1261;75374;-44
2023/12/22 00:30:34;;;;;;;1.60;0.90;;;;;;;14.69;54.65;94911.71;105223;1260;66044;-44
2023/12/22 00:33:02;;;;;;;1.30;1.00;;;;;;;14.69;54.61;94907.95;105080;1257;72441;-44
2023/12/22 00:35:30;;;;;;;1.10;0.90;;;;;;;14.68;54.70;94905.95;106075;1257;61943;-44
2023/12/22 00:37:58;;;;;;;1.10;1.00;;;;;;;14.69;54.71;94906.18;105510;1257;62076;-44
2023/12/22 00:40:25;;;;;;;1.30;1.10;;;;;;;14.69;54.73;94909.95;105504;1260;75454;-44
2023/12/22 00:42:52;;;;;;;1.80;1.00;;;;;;;14.69;54.72;94915.41;105552;1261;66103;-44
2023/12/22 00:45:19;;;;;;;1.20;1.10;;;;;;;14.69;54.58;94909.09;105556;1257;72304;-44
2023/12/22 00:47:47;;;;;;;1.30;1.10;;;;;;;14.69;54.66;94910.48;105558;1260;62031;-44
2023/12/22 00:50:15;;;;;;;1.30;1.00;;;;;;;14.69;54.74;94910.71;105190;1257;62169;-44
2023/12/22 00:52:42;;;;;;;1.90;1.00;;;;;;;14.69;54.70;94905.09;105218;1257;76446;-44
2023/12/22 00:55:09;;;;;;;1.70;1.00;;;;;;;14.69;54.55;94912.71;105216;1260;65927;-45
2023/12/22 00:57:37;;;;;;;1.20;1.10;;;;;;;14.70;54.59;94900.47;105331;1257;72462;-45
2023/12/22 01:00:05;;;;;;;0.90;0.90;;;;;;;14.69;54.75;94888.63;105275;1261;62126;-45
2023/12/22 01:02:33;;;;;;;1.00;0.90;;;;;;;14.70;54.66;94887.15;105563;1261;61931;-43
2023/12/22 01:05:00;;;;;;;1.20;1.10;;;;;;;14.70;54.66;94879.38;105400;1261;75201;-44
2023/12/22 01:07:28;;;;;;;1.10;1.00;;;;;;;14.70;54.71;94874.53;105568;1260;65168;-43
2023/12/22 01:10:01;;;;;;;1.00;0.90;;;;;;;14.70;54.70;94873.61;105172;1257;72651;-44
2023/12/22 01:12:28;;;;;;;1.40;1.00;;;;;;;14.69;54.60;94876.23;105499;1257;62154;-44
2023/12/22 01:14:56;;;;;;;1.60;1.10;;;;;;;14.69;54.58;94864.99;105559;1261;62432;-44
2023/12/22 01:17:24;;;;;;;1.30;1.20;;;;;;;14.69;54.69;94868.84;105613;1257;75402;-44
2023/12/22 01:19:51;;;;;;;0.80;0.80;;;;;;;14.70;54.57;94860.37;105392;1261;66136;-44
2023/12/22 01:22:18;;;;;;;1.10;0.90;;;;;;;14.70;54.60;94858.73;105378;1257;72402;-43
2023/12/22 01:24:46;;;;;;;1.00;0.90;;;;;;;14.70;54.51;94850.83;105361;1260;62050;-46
2023/12/22 01:27:13;;;;;;;1.30;1.00;;;;;;;14.69;54.59;94838.52;105235;1260;62050;-44
2023/12/22 01:29:40;;;;;;;1.60;0.90;;;;;;;14.69;54.56;94840.83;105085;1259;74531;-44
2023/12/22 01:32:08;;;;;;;1.10;1.00;;;;;;;14.69;54.62;94836.52;105549;1260;66018;-44
2023/12/22 01:34:35;;;;;;;1.10;1.00;;;;;;;14.70;54.62;94830.52;105466;1258;72309;-44
2023/12/22 01:37:03;;;;;;;1.00;1.00;;;;;;;14.70;54.68;94827.36;105413;1261;62054;-44
2023/12/22 01:39:30;;;;;;;1.00;1.00;;;;;;;14.70;54.59;94833.66;105595;1257;62073;-44
2023/12/22 01:41:57;;;;;;;1.40;1.00;;;;;;;14.70;54.69;94831.58;105563;1258;75426;-44
2023/12/22 01:44:24;;;;;;;1.40;0.90;;;;;;;14.70;54.64;94835.75;105521;1258;65799;-44
2023/12/22 01:46:52;;;;;;;1.50;1.20;;;;;;;14.70;54.55;94830.59;105518;1257;72434;-44
2023/12/22 01:49:20;;;;;;;1.10;1.00;;;;;;;14.70;54.55;94826.59;105527;1260;62046;-44
2023/12/22 01:51:47;;;;;;;1.10;1.00;;;;;;;14.70;54.44;94828.59;105586;1258;62033;-43
2023/12/22 01:54:18;;;;;;;1.20;1.00;;;;;;;14.70;54.63;94832.58;105509;1260;75441;-44
2023/12/22 01:56:45;;;;;;;1.90;1.20;;;;;;;14.70;54.64;94830.51;105366;1261;65765;-44
2023/12/22 01:59:13;;;;;;;1.10;0.90;;;;;;;14.70;54.64;94832.98;105417;1258;72496;-44
2023/12/22 02:01:40;;;;;;;1.00;0.90;;;;;;;14.70;54.50;94831.35;105256;1263;62082;-44
2023/12/22 02:04:07;;;;;;;1.30;1.10;;;;;;;14.70;54.52;94826.59;105296;1257;62095;-43
2023/12/22 02:06:36;;;;;;;1.10;0.90;;;;;;;14.70;54.52;94826.51;105570;1261;75419;-44
2023/12/22 02:09:04;;;;;;;0.80;0.80;;;;;;;14.70;54.71;94830.90;105521;1261;65640;-44
2023/12/22 02:11:31;;;;;;;1.20;1.10;;;;;;;14.70;54.55;94831.73;105047;1257;72675;-43
2023/12/22 02:13:58;;;;;;;0.90;0.80;;;;;;;14.70;54.55;94825.36;104999;1261;62063;-44
2023/12/22 02:16:33;;;;;;;1.90;1.10;;;;;;;14.70;54.55;94829.35;105201;1257;62051;-44
2023/12/22 02:19:04;;;;;;;0.90;0.80;;;;;;;14.70;54.60;94824.49;105435;1258;75476;-44
2023/12/22 02:21:32;;;;;;;1.30;1.10;;;;;;;14.70;54.53;94825.20;105472;1261;65586;-43
2023/12/22 02:24:00;;;;;;;1.40;1.10;;;;;;;14.71;54.53;94823.35;105096;1257;72414;-45
2023/12/22 02:26:31;;;;;;;0.90;0.70;;;;;;;14.70;54.53;94816.48;105159;1258;62503;-44
2023/12/22 02:28:59;;;;;;;1.10;1.00;;;;;;;14.70;54.59;94808.58;105157;1260;62129;-44
2023/12/22 02:31:37;;;;;;;1.00;0.90;;;;;;;14.70;54.51;94807.41;105068;1257;75455;-44
2023/12/22 02:34:06;;;;;;;0.80;0.80;;;;;;;14.70;54.55;94805.95;105559;1258;66246;-44
2023/12/22 02:36:35;;;;;;;1.10;1.00;;;;;;;14.70;54.52;94804.73;105587;1261;71357;-44
2023/12/22 02:39:02;;;;;;;1.10;1.00;;;;;;;14.70;54.64;94802.80;105554;1261;62169;-44
2023/12/22 02:41:29;;;;;;;0.90;0.80;;;;;;;14.71;54.58;94809.42;105269;1258;62605;-44
2023/12/22 02:43:57;;;;;;;1.10;1.00;;;;;;;14.70;54.59;94798.19;105543;1259;75126;-44
2023/12/22 02:46:24;;;;;;;1.40;1.00;;;;;;;14.70;54.53;94792.73;105532;1261;65703;-44
2023/12/22 02:48:51;;;;;;;1.30;0.90;;;;;;;14.70;54.55;94793.02;105361;1257;72621;-44
2023/12/22 02:51:19;;;;;;;0.80;0.80;;;;;;;14.71;54.43;94790.95;105531;1259;62048;-44
2023/12/22 02:53:46;;;;;;;1.20;0.90;;;;;;;14.70;54.54;94784.41;105343;1260;62514;-44
2023/12/22 02:56:13;;;;;;;0.70;0.70;;;;;;;14.71;54.56;94792.03;105122;1260;75437;-44
2023/12/22 02:58:40;;;;;;;1.20;0.80;;;;;;;14.71;54.55;94793.87;105403;1257;65361;-44
2023/12/22 03:01:08;;;;;;;1.20;1.00;;;;;;;14.70;54.49;94795.86;105217;1258;72481;-44
2023/12/22 03:03:35;;;;;;;1.00;0.90;;;;;;;14.71;54.49;94792.71;105139;1260;62081;-44
2023/12/22 03:06:03;;;;;;;1.40;1.00;;;;;;;14.70;54.42;94787.80;105208;1258;62410;-44
2023/12/22 03:08:30;;;;;;;1.70;1.10;;;;;;;14.71;54.54;94780.86;105464;1257;75264;-44
2023/12/22 03:10:58;;;;;;;1.60;1.10;;;;;;;14.70;54.47;94785.17;105302;1260;66137;-44
2023/12/22 03:13:25;;;;;;;1.00;0.90;;;;;;;14.70;54.40;94781.71;105463;1257;72575;-44
2023/12/22 03:15:52;;;;;;;1.00;0.90;;;;;;;14.70;54.49;94782.10;105285;1260;62071;-44
2023/12/22 03:18:20;;;;;;;0.90;0.70;;;;;;;14.71;54.45;94783.55;105184;1258;62155;-45
2023/12/22 03:20:47;;;;;;;0.90;0.90;;;;;;;14.71;54.53;94779.64;105314;1257;75488;-45
2023/12/22 03:23:14;;;;;;;1.00;0.90;;;;;;;14.71;54.57;94777.56;105209;1261;65913;-45
2023/12/22 03:25:42;;;;;;;0.70;0.70;;;;;;;14.71;54.47;94777.70;105539;1261;72610;-45
2023/12/22 03:28:09;;;;;;;0.70;0.70;;;;;;;14.71;54.48;94775.02;105446;1260;62791;-44
2023/12/22 03:30:37;;;;;;;1.60;1.10;;;;;;;14.71;54.44;94774.17;105230;1257;62161;-44
2023/12/22 03:33:06;;;;;;;0.70;0.70;;;;;;;14.71;54.50;94775.87;105478;1260;75484;-44
2023/12/22 03:35:33;;;;;;;0.80;0.80;;;;;;;14.71;54.52;94781.71;106057;1259;66229;-43
2023/12/22 03:38:01;;;;;;;0.90;0.80;;;;;;;14.71;54.51;94782.71;105598;1257;72701;-44
2023/12/22 03:40:29;;;;;;;0.80;0.70;;;;;;;14.71;54.41;94784.95;105305;1260;62091;-44
2023/12/22 03:42:57;;;;;;;0.70;0.70;;;;;;;14.71;54.39;94784.24;105408;1257;62184;-44
2023/12/22 03:45:24;;;;;;;0.80;0.80;;;;;;;14.71;54.47;94785.17;105547;1257;75977;-44
2023/12/22 03:47:51;;;;;;;1.10;0.90;;;;;;;14.71;54.43;94783.34;105567;1260;66262;-44
2023/12/22 03:50:19;;;;;;;0.80;0.70;;;;;;;14.72;54.34;94786.79;105629;1257;72044;-44
2023/12/22 03:52:46;;;;;;;0.70;0.70;;;;;;;14.71;54.41;94791.34;105509;1260;62075;-44
2023/12/22 03:55:13;;;;;;;1.00;0.90;;;;;;;14.71;54.39;94788.64;105168;1258;62160;-44
2023/12/22 03:57:41;;;;;;;1.30;0.90;;;;;;;14.71;54.43;94785.41;105278;1257;75128;-44
2023/12/22 04:00:09;;;;;;;1.40;0.90;;;;;;;14.71;54.47;94785.09;105369;1260;66095;-44
2023/12/22 04:02:37;;;;;;;0.80;0.70;;;;;;;14.71;54.42;94786.34;105620;1258;72617;-43
2023/12/22 04:05:04;;;;;;;1.00;0.80;;;;;;;14.71;54.27;94783.64;105501;1261;62077;-43
2023/12/22 04:07:32;;;;;;;0.80;0.80;;;;;;;14.72;54.44;94781.27;105448;1257;62131;-43
2023/12/22 04:09:59;;;;;;;1.10;1.00;;;;;;;14.71;54.45;94777.33;105436;1260;75397;-43
2023/12/22 04:12:26;;;;;;;1.10;0.80;;;;;;;14.71;54.47;94782.02;105554;1260;65577;-44
2023/12/22 04:14:53;;;;;;;1.00;0.90;;;;;;;14.71;54.48;94785.64;105603;1257;71480;-44
2023/12/22 04:17:21;;;;;;;0.70;0.70;;;;;;;14.71;54.35;94782.71;105552;1261;62103;-44
2023/12/22 04:19:48;;;;;;;0.80;0.80;;;;;;;14.72;54.44;94779.64;105320;1259;62179;-46
2023/12/22 04:22:16;;;;;;;1.00;0.90;;;;;;;14.72;54.38;94784.25;105301;1260;75425;-45
2023/12/22 04:24:43;;;;;;;1.30;0.70;;;;;;;14.72;54.41;94786.40;105267;1260;65949;-45
2023/12/22 04:27:10;;;;;;;0.70;0.70;;;;;;;14.72;54.45;94787.94;105625;1257;71448;-44
2023/12/22 04:29:37;;;;;;;0.90;0.80;;;;;;;14.72;54.41;94785.70;105449;1261;62056;-45
2023/12/22 04:32:05;;;;;;;0.70;0.70;;;;;;;14.71;54.32;94778.55;105484;1258;62130;-45
2023/12/22 04:34:32;;;;;;;0.80;0.70;;;;;;;14.72;54.35;94784.25;105528;1257;75101;-44
2023/12/22 04:36:59;;;;;;;0.60;0.60;;;;;;;14.72;54.42;94781.48;105652;1257;66097;-44
2023/12/22 04:39:27;;;;;;;0.70;0.70;;;;;;;14.72;54.40;94781.16;105576;1259;72376;-44
2023/12/22 04:41:54;;;;;;;1.10;1.00;;;;;;;14.72;54.33;94786.02;105264;1260;62035;-44
2023/12/22 04:44:21;;;;;;;0.90;0.80;;;;;;;14.72;54.36;94782.02;105094;1257;62040;-44
2023/12/22 04:46:49;;;;;;;1.30;0.90;;;;;;;14.72;54.34;94780.94;105223;1257;75232;-44
2023/12/22 04:49:16;;;;;;;1.30;1.00;;;;;;;14.72;54.39;94783.55;105385;1257;66333;-44
2023/12/22 04:51:44;;;;;;;1.00;0.90;;;;;;;14.72;54.35;94781.16;105631;1257;72629;-44
2023/12/22 04:54:11;;;;;;;0.80;0.80;;;;;;;14.72;54.22;94788.48;105569;1261;62075;-44
2023/12/22 04:56:39;;;;;;;1.10;0.80;;;;;;;14.72;54.40;94785.63;105325;1258;62080;-44
2023/12/22 04:59:06;;;;;;;0.70;0.70;;;;;;;14.71;54.43;94786.48;105265;1258;75109;-44
2023/12/22 05:01:33;;;;;;;1.00;0.80;;;;;;;14.71;54.34;94790.79;105388;1260;64974;-44
2023/12/22 05:04:01;;;;;;;0.70;0.70;;;;;;;14.71;54.38;94791.33;105401;1257;72609;-44
2023/12/22 05:06:29;;;;;;;0.70;0.70;;;;;;;14.72;54.35;94799.33;105381;1257;61934;-45
2023/12/22 05:08:56;;;;;;;0.90;0.80;;;;;;;14.72;54.37;94799.10;105420;1260;62009;-44
2023/12/22 05:11:24;;;;;;;1.00;0.90;;;;;;;14.72;54.38;94801.27;105381;1259;75217;-45
2023/12/22 05:13:51;;;;;;;0.70;0.70;;;;;;;14.72;54.41;94799.72;105212;1260;65865;-44
2023/12/22 05:16:19;;;;;;;1.00;0.90;;;;;;;14.72;54.42;94801.40;105458;1257;72384;-43
2023/12/22 05:18:46;;;;;;;0.80;0.80;;;;;;;14.72;54.36;94809.26;105470;1261;62052;-44
2023/12/22 05:21:16;;;;;;;0.70;0.70;;;;;;;14.72;54.34;94808.65;105568;1257;62018;-44
2023/12/22 05:23:43;;;;;;;1.00;0.80;;;;;;;14.72;54.47;94813.48;105558;1257;74364;-44
2023/12/22 05:26:16;;;;;;;0.60;0.60;;;;;;;14.72;54.39;94806.10;105478;1259;65932;-44
2023/12/22 05:28:44;;;;;;;1.00;0.90;;;;;;;14.72;54.39;94804.19;105572;1258;72531;-44
2023/12/22 05:31:12;;;;;;;0.70;0.70;;;;;;;14.72;54.30;94798.48;105303;1257;62159;-45
2023/12/22 05:33:39;;;;;;;0.70;0.70;;;;;;;14.72;54.32;94802.41;105531;1257;62157;-45
2023/12/22 05:36:06;;;;;;;0.60;0.60;;;;;;;14.73;54.46;94806.10;105520;1260;75372;-46
2023/12/22 05:38:38;;;;;;;0.70;0.60;;;;;;;14.73;54.36;94806.79;105556;1261;66128;-44
2023/12/22 05:41:06;;;;;;;0.80;0.80;;;;;;;14.72;54.34;94808.48;105640;1260;71165;-44
2023/12/22 05:43:33;;;;;;;0.80;0.80;;;;;;;14.72;54.37;94812.72;105598;1256;62085;-44
2023/12/22 05:46:01;;;;;;;1.00;0.90;;;;;;;14.72;54.28;94806.02;105660;1257;62074;-44
2023/12/22 05:48:28;;;;;;;0.90;0.80;;;;;;;14.72;54.37;94797.40;105507;1257;75381;-44
2023/12/22 05:50:56;;;;;;;0.90;0.70;;;;;;;14.72;54.34;94793.71;105568;1261;65851;-43
2023/12/22 05:53:24;;;;;;;0.80;0.70;;;;;;;14.73;54.38;94799.40;105258;1259;72620;-44
2023/12/22 05:55:51;;;;;;;1.60;0.70;;;;;;;14.73;54.31;94806.80;105264;1259;62139;-45
2023/12/22 05:58:18;;;;;;;1.00;0.90;;;;;;;14.73;54.32;94817.41;105497;1260;62385;-50
2023/12/22 06:00:46;;;;;;;1.60;1.00;;;;;;;14.74;54.44;94814.03;105568;1257;74429;-53
2023/12/22 06:03:14;;;;;;;4.00;1.00;;;;;;;14.75;54.33;94805.39;105322;1260;63565;-52
2023/12/22 06:05:41;;;;;;;1.80;1.00;;;;;;;14.78;54.65;94808.54;105521;1260;72646;-50
2023/12/22 06:08:09;;;;;;;2.00;1.20;;;;;;;14.84;54.76;94819.73;105215;1262;61969;-49
2023/12/22 06:10:37;;;;;;;1.20;1.00;;;;;;;14.89;54.75;94817.10;105669;1256;62039;-49
2023/12/22 06:13:05;;;;;;;2.20;1.10;;;;;;;14.93;54.78;94826.55;105160;1258;75313;-49
2023/12/22 06:15:32;;;;;;;1.10;1.00;;;;;;;14.97;54.73;94838.38;105984;1260;64280;-50
2023/12/22 06:17:59;;;;;;;1.40;1.00;;;;;;;15.01;54.65;94850.54;105306;1257;72738;-51
2023/12/22 06:20:27;;;;;;;1.00;0.90;;;;;;;15.03;54.51;94848.52;105208;1260;62065;-52
2023/12/22 06:22:54;;;;;;;1.90;1.30;;;;;;;15.06;54.48;94848.81;105393;1256;62040;-54
2023/12/22 06:25:22;;;;;;;1.20;1.10;;;;;;;15.08;54.36;94847.48;105401;1261;75443;-52
2023/12/22 06:27:49;;;;;;;2.10;1.10;;;;;;;15.10;54.37;94854.11;105261;1257;65331;-51
2023/12/22 06:30:17;;;;;;;1.40;1.10;;;;;;;15.11;54.31;94865.11;105309;1260;72555;-53
2023/12/22 06:32:44;;;;;;;2.30;1.20;;;;;;;15.13;54.46;94867.25;105306;1258;62208;-49
2023/12/22 06:35:12;;;;;;;1.60;1.20;;;;;;;15.14;54.31;94876.72;105396;1257;62101;-49
2023/12/22 06:37:43;;;;;;;1.40;0.90;;;;;;;15.15;54.30;94876.02;105156;1261;75512;-49
2023/12/22 06:40:12;;;;;;;1.80;1.00;;;;;;;15.15;54.20;94870.00;105251;1261;66230;-50
2023/12/22 06:42:39;;;;;;;1.20;0.90;;;;;;;15.15;54.20;94875.17;105406;1259;71513;-48
2023/12/22 06:45:07;;;;;;;1.50;1.20;;;;;;;15.16;54.22;94872.33;105529;1260;62723;-50
2023/12/22 06:47:34;;;;;;;1.50;1.00;;;;;;;15.16;54.26;94870.39;105399;1259;62060;-47
2023/12/22 06:50:03;;;;;;;1.50;1.10;;;;;;;15.16;54.34;94872.32;105426;1256;75248;-50
2023/12/22 06:52:30;;;;;;;1.90;0.90;;;;;;;15.16;54.46;94872.02;105598;1260;64246;-48
2023/12/22 06:54:58;;;;;;;4.40;1.20;;;;;;;15.15;54.52;94873.94;105191;1259;72574;-48
2023/12/22 06:57:25;;;;;;;1.90;1.10;;;;;;;15.15;54.48;94875.63;105247;1261;61986;-49
2023/12/22 06:59:54;;;;;;;1.00;0.90;;;;;;;15.15;54.48;94879.73;105379;1258;201867;-46
2023/12/22 07:02:21;;;;;;;1.60;1.00;;;;;;;15.14;54.37;94876.56;105483;1261;75142;-45
2023/12/22 07:05:06;;;;;;;4.80;1.10;;;;;;;15.13;54.47;94880.27;105276;1261;65859;-50
2023/12/22 07:07:34;;;;;;;1.90;0.80;;;;;;;15.13;54.56;94883.96;105391;1258;72575;-50
2023/12/22 07:10:03;;;;;;;2.60;1.10;;;;;;;15.14;54.55;94885.19;105543;1257;62155;-49
2023/12/22 07:12:31;;;;;;;1.70;1.00;;;;;;;15.13;54.64;94887.27;105513;1258;61937;-49
2023/12/22 07:14:59;;;;;;;4.30;1.20;;;;;;;15.14;54.54;94886.73;105406;1260;75469;-49
2023/12/22 07:17:26;;;;;;;4.40;1.10;;;;;;;15.14;54.59;94888.13;105359;1260;65784;-49
2023/12/22 07:19:57;;;;;;;6.30;1.10;;;;;;;15.14;54.49;94878.58;105126;1257;71402;-49
2023/12/22 07:22:25;;;;;;;1.50;0.90;;;;;;;15.14;54.57;94886.58;105467;1259;62059;-49
2023/12/22 07:24:53;;;;;;;2.90;1.10;;;;;;;15.15;54.49;94889.88;105256;1258;62048;-49
2023/12/22 07:27:21;;;;;;;1.50;0.70;;;;;;;15.15;54.56;94893.50;105204;1260;77989;-49
2023/12/22 07:29:49;;;;;;;2.10;1.00;;;;;;;15.15;54.45;94889.04;105573;1258;66227;-49
2023/12/22 07:32:17;;;;;;;2.20;1.10;;;;;;;15.15;54.50;94885.72;105325;1261;72269;-49
2023/12/22 07:34:45;;;;;;;1.50;1.00;;;;;;;15.15;54.44;94883.41;105237;1257;62062;-49
2023/12/22 07:37:13;;;;;;;2.30;1.00;;;;;;;15.14;54.35;94886.04;105632;1257;62153;-49
2023/12/22 07:39:41;;;;;;;1.70;1.00;;;;;;;15.14;54.43;94895.05;105438;1260;75521;-49
2023/12/22 07:42:09;;;;;;;1.60;1.00;;;;;;;15.14;54.39;94900.83;106078;1260;65570;-48
2023/12/22 07:44:36;;;;;;;2.50;1.10;;;;;;;15.14;54.37;94897.14;105244;1258;72561;-50
2023/12/22 07:47:04;;;;;;;0.80;0.80;;;;;;;15.15;54.44;94899.27;105219;1261;62049;-48
2023/12/22 07:49:32;;;;;;;3.20;0.80;;;;;;;15.15;54.62;94902.05;105461;1259;62150;-57
2023/12/22 07:52:00;;;;;;;1.70;0.90;;;;;;;15.17;54.82;94898.82;105602;1257;74841;-56
2023/12/22 07:54:30;;;;;;;3.00;0.90;;;;;;;15.18;54.99;94903.11;105434;1257;65278;-49
2023/12/22 07:56:57;;;;;;;1.70;0.90;;;;;;;15.20;55.08;94908.04;105437;1261;72277;-54
2023/12/22 07:59:25;;;;;;;3.00;1.10;;;;;;;15.21;55.18;94908.65;105450;1261;62398;-55
2023/12/22 08:01:58;;;;;;;2.80;1.00;;;;;;;15.22;55.29;94910.17;105498;1259;62077;-53
2023/12/22 08:04:26;;;;;;;2.00;1.00;;;;;;;15.23;55.33;94910.64;105521;1259;74533;-52
2023/12/22 08:06:54;;;;;;;3.70;1.20;;;;;;;15.24;55.17;94913.27;105231;1260;65215;-52
2023/12/22 08:09:22;;;;;;;6.60;1.20;;;;;;;15.24;55.09;94924.35;105405;1259;72328;-54
2023/12/22 08:11:52;;;;;;;2.50;1.00;;;;;;;15.24;55.19;94928.75;105204;1261;62052;-54
2023/12/22 08:14:20;;;;;;;3.20;1.00;;;;;;;15.24;55.25;94933.98;105079;1259;62038;-54
2023/12/22 08:16:47;;;;;;;2.80;1.10;;;;;;;15.25;55.25;94938.21;105132;1260;75376;-47
2023/12/22 08:19:15;;;;;;;3.10;1.30;;;;;;;15.25;55.45;94934.36;105502;1256;66712;-54
2023/12/22 08:21:43;;;;;;;2.50;1.30;;;;;;;15.26;55.29;94937.13;105416;1256;72685;-52
2023/12/22 08:24:13;;;;;;;2.70;1.20;;;;;;;15.26;55.09;94940.30;105266;1256;62222;-52
2023/12/22 08:26:49;;;;;;;2.00;0.90;;;;;;;15.26;55.11;94930.89;105289;1256;62043;-51
2023/12/22 08:29:18;;;;;;;2.30;1.00;;;;;;;15.26;55.12;94927.34;105571;1256;73545;-53
2023/12/22 08:31:46;;;;;;;2.40;1.00;;;;;;;15.25;55.09;94923.27;105457;1260;65161;-53
2023/12/22 08:34:13;;;;;;;1.30;0.90;;;;;;;15.25;55.12;94926.89;105524;1256;73192;-51
2023/12/22 08:36:41;;;;;;;2.70;1.00;;;;;;;15.24;55.06;94924.90;105621;1260;62087;-52
2023/12/22 08:39:08;;;;;;;2.20;1.00;;;;;;;15.24;54.98;94924.96;105527;1256;62146;-51
2023/12/22 08:41:37;;;;;;;1.90;0.80;;;;;;;15.23;54.99;94922.20;105437;1262;76473;-51
2023/12/22 08:44:05;;;;;;;2.90;1.30;;;;;;;15.22;54.96;94913.10;105226;1256;65442;-52
2023/12/22 08:46:34;;;;;;;1.40;1.10;;;;;;;15.22;54.81;94918.88;105353;1262;71685;-51
2023/12/22 08:49:02;;;;;;;3.10;1.00;;;;;;;15.21;54.82;94918.89;105595;1256;62040;-51
2023/12/22 08:51:30;;;;;;;2.20;1.20;;;;;;;15.21;54.92;94925.05;105310;1260;62058;-51
2023/12/22 08:53:58;;;;;;;2.10;1.30;;;;;;;15.21;54.82;94926.68;105405;1256;75228;-52
2023/12/22 08:56:26;;;;;;;1.50;1.10;;;;;;;15.21;54.71;94929.52;105351;1256;64319;-52
2023/12/22 08:58:59;;;;;;;4.30;1.10;;;;;;;15.20;54.76;94921.67;105496;1256;72583;-52
2023/12/22 09:01:26;;;;;;;2.00;1.00;;;;;;;15.20;54.73;94925.14;105573;1261;62035;-51
2023/12/22 09:03:54;;;;;;;3.30;1.20;;;;;;;15.20;54.67;94933.45;105172;1257;62067;-51
2023/12/22 09:06:22;;;;;;;2.40;1.10;;;;;;;15.20;54.80;94942.92;105393;1261;76455;-50
2023/12/22 09:08:49;;;;;;;2.00;1.10;;;;;;;15.19;54.68;94945.16;105495;1259;65459;-51
2023/12/22 09:11:18;;;;;;;1.50;1.20;;;;;;;15.20;54.77;94954.71;105274;1259;72591;-51
2023/12/22 09:13:46;;;;;;;1.40;0.90;;;;;;;15.19;54.73;94956.73;105312;1258;62269;-52
2023/12/22 09:16:16;;;;;;;2.70;1.10;;;;;;;15.19;54.57;94959.51;105252;1259;62076;-51
2023/12/22 09:18:44;;;;;;;2.50;1.10;;;;;;;15.18;54.70;94959.96;105462;1261;75910;-50
2023/12/22 09:21:12;;;;;;;3.60;1.10;;;;;;;15.19;54.60;94959.48;105592;1261;65808;-52
2023/12/22 09:23:44;;;;;;;3.30;1.10;;;;;;;15.18;54.64;94951.34;105494;1259;72674;-53
2023/12/22 09:26:15;;;;;;;1.50;1.00;;;;;;;15.18;54.64;94952.41;105305;1261;62053;-49
2023/12/22 09:28:42;;;;;;;2.90;1.30;;;;;;;15.18;54.83;94949.10;105044;1260;62050;-60
2023/12/22 09:31:10;;;;;;;3.00;1.30;;;;;;;15.19;54.97;94944.63;105131;1257;75381;-51
2023/12/22 09:33:37;;;;;;;4.10;1.20;;;;;;;15.21;55.25;94933.30;105497;1260;65560;-54
2023/12/22 09:36:05;;;;;;;5.30;1.10;;;;;;;15.23;55.36;94930.59;105213;1259;72619;-47
2023/12/22 09:38:33;;;;;;;2.40;1.10;;;;;;;15.25;55.44;94930.28;105490;1259;62008;-50
2023/12/22 09:41:01;;;;;;;3.50;1.10;;;;;;;15.27;55.49;94924.19;105355;1256;62066;-43
2023/12/22 09:43:28;;;;;;;1.00;0.90;;;;;;;15.29;55.51;94927.09;105232;1261;75372;-45
2023/12/22 09:45:56;;;;;;;1.20;0.80;;;;;;;15.31;55.61;94923.55;105553;1261;65692;-46
2023/12/22 09:48:27;;;;;;;1.70;1.00;;;;;;;15.32;55.64;94920.38;105235;1259;72608;-46
2023/12/22 09:50:54;;;;;;;1.20;1.00;;;;;;;15.33;55.63;94928.92;105243;1261;62078;-46
2023/12/22 09:53:22;;;;;;;2.00;1.10;;;;;;;15.33;55.56;94935.94;105029;1257;62018;-45
2023/12/22 09:55:49;;;;;;;2.60;1.40;;;;;;;15.33;55.63;94935.85;105149;1261;76833;-47
2023/12/22 09:58:17;;;;;;;3.20;1.30;;;;;;;15.33;55.58;94935.33;105176;1261;66077;-48
2023/12/22 10:00:45;;;;;;;2.60;1.40;;;;;;;15.33;55.44;94932.08;105264;1259;74441;-47
2023/12/22 10:03:12;;;;;;;2.60;1.30;;;;;;;15.33;55.43;94923.70;105413;1259;62139;-47
2023/12/22 10:05:40;;;;;;;2.70;1.00;;;;;;;15.33;55.44;94917.91;105578;1259;62049;-46
2023/12/22 10:08:10;;;;;;;2.70;1.50;;;;;;;15.33;55.30;94910.13;105288;1261;76476;-46
2023/12/22 10:10:40;;;;;;;1.90;1.20;;;;;;;15.33;55.30;94911.90;107072;1259;64472;-47
2023/12/22 10:13:11;;;;;;;2.60;1.20;;;;;;;15.33;55.24;94921.69;105274;1259;73630;-47
2023/12/22 10:15:41;;;;;;;2.50;1.20;;;;;;;15.33;55.15;94920.38;105782;1261;62072;-47
2023/12/22 10:18:09;;;;;;;1.10;1.00;;;;;;;15.33;55.11;94923.61;105224;1259;62102;-48
2023/12/22 10:20:37;;;;;;;2.80;1.20;;;;;;;15.33;55.10;94926.15;105740;1258;74200;-49
2023/12/22 10:23:04;;;;;;;2.50;1.30;;;;;;;15.33;54.99;94932.85;105378;1260;63865;-47
2023/12/22 10:25:34;;;;;;;2.90;1.20;;;;;;;15.33;55.05;94936.02;105744;1256;72402;-48
2023/12/22 10:28:02;;;;;;;3.20;1.30;;;;;;;15.33;54.88;94937.47;105342;1259;62058;-48
2023/12/22 10:30:32;;;;;;;2.50;1.20;;;;;;;15.32;54.87;94935.16;105939;1256;62125;-48
2023/12/22 10:32:59;;;;;;;1.90;1.10;;;;;;;15.32;54.87;94928.08;105296;1259;75275;-48
2023/12/22 10:35:26;;;;;;;1.70;1.20;;;;;;;15.33;54.89;94934.86;105327;1261;66946;-48
2023/12/22 10:37:55;;;;;;;3.30;1.30;;;;;;;15.31;54.76;94938.56;105553;1256;73436;-48
2023/12/22 10:40:25;;;;;;;2.30;1.10;;;;;;;15.32;54.85;94939.79;105257;1256;62129;-48
2023/12/22 10:42:53;;;;;;;2.90;1.30;;;;;;;15.31;54.71;94942.58;105358;1256;62056;-48
2023/12/22 10:45:20;;;;;;;2.00;1.30;;;;;;;15.31;54.71;94940.26;105068;1256;76437;-47
2023/12/22 10:47:51;;;;;;;1.50;1.10;;;;;;;15.31;54.75;94936.88;105157;1261;65035;-48
2023/12/22 10:50:19;;;;;;;1.90;1.10;;;;;;;15.30;54.72;94931.72;105237;1259;73147;-43
2023/12/22 10:52:50;;;;;;;1.90;1.30;;;;;;;15.30;54.75;94931.48;105300;1256;62102;-42
2023/12/22 10:55:19;;;;;;;1.70;1.20;;;;;;;15.29;54.94;94935.17;105219;1259;62149;-45
2023/12/22 10:57:46;;;;;;;2.80;1.70;;;;;;;15.31;55.09;94937.80;105038;1258;75803;-43
2023/12/22 11:00:16;;;;;;;3.10;1.40;;;;;;;15.34;55.38;94940.23;105296;1260;66237;-46
2023/12/22 11:02:43;;;;;;;4.10;1.60;;;;;;;15.38;55.53;94940.91;105010;1259;71224;-41
2023/12/22 11:05:12;;;;;;;2.70;1.60;;;;;;;15.41;55.56;94932.42;105148;1260;62064;-42
2023/12/22 11:07:40;;;;;;;2.90;1.50;;;;;;;15.43;55.61;94930.48;105380;1259;62173;-43
2023/12/22 11:10:07;;;;;;;5.00;1.70;;;;;;;15.46;55.73;94929.42;105024;1263;78072;-47
2023/12/22 11:12:36;;;;;;;4.10;1.50;;;;;;;15.47;55.90;94924.33;105464;1261;66378;-46
2023/12/22 11:15:07;;;;;;;3.00;1.40;;;;;;;15.48;55.90;94925.16;105517;1261;72393;-47
2023/12/22 11:17:41;;;;;;;4.00;1.50;;;;;;;15.50;55.79;94922.54;105529;1261;62063;-49
2023/12/22 11:20:09;;;;;;;2.30;1.50;;;;;;;15.50;55.92;94925.69;105155;1264;61936;-48
2023/12/22 11:22:36;;;;;;;5.50;1.60;;;;;;;15.51;55.96;94916.14;105546;1258;75444;-47
2023/12/22 11:25:05;;;;;;;2.30;1.40;;;;;;;15.52;55.92;94920.67;105289;1256;66304;-48
2023/12/22 11:27:33;;;;;;;2.60;1.30;;;;;;;15.53;55.91;94920.59;105579;1259;72679;-45